Archival Weather

Bridgeport/Sikorsky

Bridgeport, Connecticut (KBDR)

Report from: Friday, February 23, 2024 7:54 AM EST
Current time: Wednesday, May 29, 2024 7:34 PM EDT

Current weather – Weather history – Daily summaries
Weather forecast

Present weatherMist
Temperature5.6°C (42.1°F)
Wind chill3.6°C (38.4°F)
Dew point4.4°C (39.9°F)
Winds 5 kts (2.6 m/s, 5.8 mph) North (350°)
Visibility5 mi. (8 km)
Clouds Ceiling: Overcast 11,000 ft. (3,353 m)
Altimeter29.53 in.Hg (1000 mB)
Relative humidity92 %
Density altitude-559 ft. (-170 m)
Remarks Special weather observation
Automated weather observing station with precipitation discriminator
Flight conditions Visual Meteorological Conditions
Raw dataSPUS80 KWBC 231300 SPECI KBDR 231254Z 35005KT 5SM BR OVC110 06/04 A2953 RMK AO2 T00560044
An error has occurred. This application may no longer respond until reloaded. Reload 🗙